Time;durP1;ratioP1;P1;durP2;ratioP2;P2;SDS_P1;SDS_P2;PMS_P1;PMS_P2;Temp;Humidity;BMP_temperature;BMP_pressure;BME280_temperature;BME280_humidity;BME280_pressure;Samples;Min_cycle;Max_cycle;Signal;HPM_P1;HPM_P2
2022/04/12 00:00:59;;;;;;;0.20;0.20;;;;;;;18.77;38.40;100801.09;5121330;27;20521;-31
2022/04/12 00:03:25;;;;;;;0.20;0.20;;;;;;;18.77;38.27;100795.59;5103358;28;20079;-31
2022/04/12 00:05:51;;;;;;;0.20;0.20;;;;;;;18.77;38.17;100798.34;5120641;27;20163;-30
2022/04/12 00:08:17;;;;;;;0.20;0.20;;;;;;;18.75;38.36;100787.59;5105135;27;20089;-29
2022/04/12 00:10:43;;;;;;;0.20;0.20;;;;;;;18.77;38.30;100792.81;5122216;27;20067;-30
2022/04/12 00:13:09;;;;;;;0.20;0.20;;;;;;;18.77;38.28;100784.53;5113432;28;20095;-29
2022/04/12 00:15:35;;;;;;;0.20;0.20;;;;;;;18.76;38.26;100780.97;5120501;28;20035;-30
2022/04/12 00:20:46;;;;;;;0.20;0.20;;;;;;;18.76;38.26;100774.63;5090786;28;20063;-30
2022/04/12 00:23:14;;;;;;;0.20;0.20;;;;;;;18.77;38.35;100770.75;5124584;28;20134;-30
2022/04/12 00:25:43;;;;;;;0.20;0.20;;;;;;;18.75;38.09;100768.28;5123914;27;20500;-29
2022/04/12 00:28:09;;;;;;;0.20;0.20;;;;;;;18.76;38.20;100769.94;5118626;28;20092;-30
2022/04/12 00:30:35;;;;;;;0.20;0.20;;;;;;;18.76;38.22;100767.16;5119948;27;20448;-30
2022/04/12 00:33:00;;;;;;;0.20;0.20;;;;;;;18.77;38.33;100765.22;5123026;28;20225;-30
2022/04/12 00:35:26;;;;;;;0.20;0.20;;;;;;;18.75;38.46;100762.78;5124496;27;20058;-30
2022/04/12 00:37:52;;;;;;;0.20;0.20;;;;;;;18.77;38.19;100765.22;5102179;28;20393;-29
2022/04/12 00:40:19;;;;;;;0.20;0.20;;;;;;;18.76;38.36;100769.94;5087688;28;20077;-29
2022/04/12 00:42:45;;;;;;;0.20;0.20;;;;;;;18.76;38.10;100758.91;5118170;27;20084;-30
2022/04/12 00:45:11;;;;;;;0.20;0.20;;;;;;;18.77;38.33;100765.22;5123401;28;20095;-29
2022/04/12 00:47:39;;;;;;;0.20;0.20;;;;;;;18.77;38.18;100771.56;5106095;28;20039;-29
2022/04/12 00:50:06;;;;;;;0.20;0.20;;;;;;;18.76;38.37;100764.41;5123691;27;20071;-30
2022/04/12 00:52:36;;;;;;;0.20;0.20;;;;;;;18.76;38.27;100767.16;5124947;28;20074;-29
2022/04/12 00:55:03;;;;;;;0.20;0.20;;;;;;;18.76;38.23;100764.41;5103440;28;20129;-30
2022/04/12 00:57:30;;;;;;;0.20;0.20;;;;;;;18.76;38.27;100761.66;5120313;28;20077;-29
2022/04/12 00:59:59;;;;;;;0.20;0.20;;;;;;;18.76;38.36;100764.41;5123244;28;20039;-29
2022/04/12 01:02:24;;;;;;;;;;;;;;;18.76;38.20;100755.31;5121846;27;20094;-29
2022/04/12 01:04:50;;;;;;;0.20;0.20;;;;;;;18.76;38.17;100755.31;5120636;27;20312;-29
2022/04/12 01:07:17;;;;;;;0.20;0.20;;;;;;;18.76;38.37;100749.78;5124275;27;20043;-30
2022/04/12 01:09:42;;;;;;;0.20;0.20;;;;;;;18.76;38.39;100756.13;5117770;28;20089;-30
2022/04/12 01:12:10;;;;;;;0.20;0.20;;;;;;;18.77;38.31;100745.91;5106030;28;20394;-31
2022/04/12 01:14:36;;;;;;;0.20;0.20;;;;;;;18.76;38.17;100747.03;5119506;27;20140;-30
2022/04/12 01:17:04;;;;;;;0.20;0.20;;;;;;;18.76;38.24;100741.53;5120720;28;20090;-31
2022/04/12 01:19:30;;;;;;;0.20;0.20;;;;;;;18.77;38.38;100741.22;5112117;27;20073;-30
2022/04/12 01:22:02;;;;;;;0.20;0.20;;;;;;;18.76;38.33;100736.81;5127431;27;20043;-30
2022/04/12 01:24:28;;;;;;;0.20;0.20;;;;;;;18.75;38.27;100745.41;5103859;28;20138;-30
2022/04/12 01:26:54;;;;;;;0.20;0.20;;;;;;;18.76;38.32;100745.09;5121793;28;20102;-29
2022/04/12 01:29:19;;;;;;;0.20;0.20;;;;;;;18.76;38.35;100741.53;5123528;27;20546;-30
2022/04/12 01:31:45;;;;;;;0.20;0.20;;;;;;;18.76;38.20;100730.50;5120626;28;20046;-31
2022/04/12 01:34:11;;;;;;;0.20;0.20;;;;;;;18.76;38.15;100739.59;5124947;28;20126;-30
2022/04/12 01:36:37;;;;;;;0.20;0.20;;;;;;;18.76;38.20;100725.78;5102171;28;20371;-30
2022/04/12 01:39:03;;;;;;;0.20;0.20;;;;;;;18.76;38.22;100725.78;5104836;28;20047;-30
2022/04/12 01:41:29;;;;;;;0.20;0.20;;;;;;;18.76;38.27;100711.19;5124210;27;20047;-30
2022/04/12 01:43:55;;;;;;;0.20;0.20;;;;;;;18.75;38.28;100704.84;5103713;28;20058;-30
2022/04/12 01:46:20;;;;;;;0.20;0.20;;;;;;;18.76;38.28;100708.41;5117380;28;20040;-30
2022/04/12 01:48:48;;;;;;;0.30;0.30;;;;;;;18.77;38.23;100704.53;5102089;28;20046;-31
2022/04/12 01:51:14;;;;;;;0.20;0.20;;;;;;;18.76;38.34;100698.19;5119694;28;20485;-30
2022/04/12 01:53:39;;;;;;;0.20;0.20;;;;;;;18.77;38.18;100701.78;5117065;27;20055;-30
2022/04/12 01:56:05;;;;;;;0.20;0.20;;;;;;;18.76;38.22;100698.19;5117790;27;20036;-30
2022/04/12 01:58:32;;;;;;;0.20;0.20;;;;;;;18.77;38.14;100699.03;5119240;28;20129;-30
2022/04/12 02:00:59;;;;;;;0.20;0.20;;;;;;;18.76;38.27;100703.72;5119842;27;20066;-31
2022/04/12 02:03:24;;;;;;;0.20;0.20;;;;;;;18.75;38.25;100702.06;5123208;27;20070;-31
2022/04/12 02:05:51;;;;;;;0.20;0.20;;;;;;;18.76;38.29;100703.72;5103068;28;20047;-30
2022/04/12 02:08:17;;;;;;;0.20;0.20;;;;;;;18.76;38.09;100700.13;5081732;28;20078;-30
2022/04/12 02:10:43;;;;;;;0.20;0.20;;;;;;;18.77;38.27;100704.53;5123624;27;20071;-32
2022/04/12 02:13:08;;;;;;;0.20;0.20;;;;;;;18.76;38.33;100697.38;5122690;28;20441;-32
2022/04/12 02:15:34;;;;;;;0.20;0.20;;;;;;;18.76;38.15;100698.19;5117838;28;20043;-29
2022/04/12 02:18:00;;;;;;;0.20;0.20;;;;;;;18.77;38.28;100696.25;5102785;28;20123;-32
2022/04/12 02:20:27;;;;;;;0.20;0.20;;;;;;;18.76;38.08;100700.97;5120429;27;20039;-29
2022/04/12 02:22:53;;;;;;;0.20;0.20;;;;;;;18.77;38.24;100699.03;5119445;28;20083;-30
2022/04/12 02:25:18;;;;;;;0.20;0.20;;;;;;;18.76;38.21;100705.66;5116891;28;20136;-33
2022/04/12 02:27:44;;;;;;;0.30;0.30;;;;;;;18.76;38.17;100697.38;5099758;28;20040;-30
2022/04/12 02:30:11;;;;;;;0.20;0.20;;;;;;;18.76;37.99;100709.25;5119206;28;20043;-31
2022/04/12 02:32:36;;;;;;;0.20;0.20;;;;;;;18.76;38.08;100711.19;5115266;27;20070;-30
2022/04/12 02:35:02;;;;;;;0.20;0.20;;;;;;;18.76;38.37;100716.69;5119487;28;20456;-29
2022/04/12 02:37:28;;;;;;;0.20;0.20;;;;;;;18.76;38.26;100712.00;5120164;28;20071;-30
2022/04/12 02:39:53;;;;;;;0.20;0.20;;;;;;;18.77;38.34;100710.06;5119138;28;20425;-31
2022/04/12 02:42:19;;;;;;;0.20;0.20;;;;;;;18.77;38.11;100710.06;5119395;28;20450;-29
2022/04/12 02:44:45;;;;;;;0.20;0.20;;;;;;;18.77;38.25;100702.59;5118956;27;20050;-30
2022/04/12 02:47:11;;;;;;;0.20;0.20;;;;;;;18.75;37.80;100702.06;5118813;28;20051;-30
2022/04/12 02:49:37;;;;;;;0.20;0.20;;;;;;;18.75;38.04;100696.56;5118127;27;20138;-29
2022/04/12 02:52:03;;;;;;;0.20;0.20;;;;;;;18.76;38.11;100694.63;5124725;28;20051;-31
2022/04/12 02:54:28;;;;;;;0.20;0.20;;;;;;;18.76;38.25;100691.88;5119904;28;20401;-30
2022/04/12 02:56:54;;;;;;;0.20;0.20;;;;;;;18.76;38.34;100692.69;5120766;27;20046;-29
2022/04/12 02:59:19;;;;;;;0.20;0.20;;;;;;;18.77;38.18;100702.59;5123228;28;20051;-29
2022/04/12 03:01:45;;;;;;;0.20;0.20;;;;;;;18.76;38.18;100702.91;5121234;28;20046;-31
2022/04/12 03:04:11;;;;;;;0.20;0.20;;;;;;;18.75;38.17;100684.69;5121205;27;20043;-29
2022/04/12 03:06:36;;;;;;;0.20;0.20;;;;;;;18.76;38.07;100692.69;5117976;28;20457;-29
2022/04/12 03:09:02;;;;;;;0.20;0.20;;;;;;;18.76;38.09;100692.69;5117584;28;20466;-29
2022/04/12 03:11:28;;;;;;;0.20;0.20;;;;;;;18.75;38.19;100693.81;5121361;28;20090;-30
2022/04/12 03:13:54;;;;;;;0.20;0.20;;;;;;;18.76;38.27;100691.88;5119756;28;20066;-30
2022/04/12 03:16:19;;;;;;;0.20;0.20;;;;;;;18.76;38.10;100686.34;5119972;28;20035;-31
2022/04/12 03:18:45;;;;;;;0.20;0.20;;;;;;;18.77;38.17;100683.28;5119585;27;20433;-29
2022/04/12 03:21:11;;;;;;;0.20;0.20;;;;;;;18.76;38.16;100681.66;5085451;28;20075;-29
2022/04/12 03:23:37;;;;;;;0.20;0.20;;;;;;;18.75;38.06;100671.72;5120558;28;20044;-29
2022/04/12 03:26:03;;;;;;;0.20;0.20;;;;;;;18.76;38.13;100670.63;5125627;28;20043;-32
2022/04/12 03:28:29;;;;;;;0.20;0.20;;;;;;;18.76;38.09;100667.84;5127763;28;20039;-30
2022/04/12 03:30:55;;;;;;;0.20;0.20;;;;;;;18.77;38.16;100668.69;5102740;28;20054;-30
2022/04/12 03:33:21;;;;;;;0.20;0.20;;;;;;;18.77;38.21;100675.00;5120795;28;20066;-33
2022/04/12 03:35:46;;;;;;;0.20;0.20;;;;;;;18.76;38.32;100675.31;5101733;28;20086;-30
2022/04/12 03:38:14;;;;;;;0.20;0.20;;;;;;;18.76;38.21;100680.81;5118814;28;20126;-30
2022/04/12 03:40:41;;;;;;;0.20;0.20;;;;;;;18.76;38.15;100675.31;5122608;27;20472;-30
2022/04/12 03:43:07;;;;;;;0.20;0.20;;;;;;;18.77;38.04;100663.16;5117306;28;20098;-30
2022/04/12 03:45:33;;;;;;;0.20;0.20;;;;;;;18.75;38.10;100657.94;5127940;27;20730;-31
2022/04/12 03:47:59;;;;;;;0.20;0.20;;;;;;;18.75;38.28;100652.41;5118398;28;20040;-32
2022/04/12 03:50:25;;;;;;;0.20;0.20;;;;;;;18.76;38.31;100650.47;5117465;27;20577;-30
2022/04/12 03:52:52;;;;;;;0.20;0.20;;;;;;;18.77;38.18;100646.59;5121680;27;20055;-29
2022/04/12 03:55:30;;;;;;;0.20;0.20;;;;;;;18.76;38.28;100650.47;5108938;28;20096;-30
2022/04/12 03:57:58;;;;;;;0.20;0.20;;;;;;;18.76;38.08;100656.81;5102196;28;20082;-30
2022/04/12 04:00:24;;;;;;;0.20;0.20;;;;;;;18.77;38.00;100652.13;5105479;27;20714;-30
2022/04/12 04:02:49;;;;;;;0.22;0.22;;;;;;;18.76;38.14;100656.81;5117273;27;20039;-30
2022/04/12 04:05:15;;;;;;;0.20;0.20;;;;;;;18.77;38.08;100655.72;5116615;28;20404;-30
2022/04/12 04:07:41;;;;;;;0.20;0.20;;;;;;;18.76;38.02;100656.00;5121608;27;20123;-30
2022/04/12 04:10:07;;;;;;;0.20;0.20;;;;;;;18.76;38.26;100669.78;5119958;27;20043;-30
2022/04/12 04:12:32;;;;;;;0.20;0.20;;;;;;;18.76;38.15;100665.09;5125322;28;20035;-30
2022/04/12 04:14:58;;;;;;;0.20;0.20;;;;;;;18.76;38.33;100667.84;5103407;28;20043;-30
2022/04/12 04:17:24;;;;;;;0.20;0.20;;;;;;;18.75;38.01;100654.34;5123659;28;20035;-30
2022/04/12 04:19:49;;;;;;;0.20;0.20;;;;;;;18.76;38.06;100658.75;5119848;27;20405;-30
2022/04/12 04:22:15;;;;;;;0.20;0.20;;;;;;;18.77;38.26;100671.44;5122989;28;20423;-29
2022/04/12 04:24:40;;;;;;;0.20;0.20;;;;;;;18.75;37.92;100657.94;5123862;28;20039;-32
2022/04/12 04:27:08;;;;;;;0.20;0.20;;;;;;;18.75;38.27;100666.22;5125487;27;20043;-30
2022/04/12 04:29:35;;;;;;;0.20;0.20;;;;;;;18.77;38.32;100674.19;5127803;28;20122;-29
2022/04/12 04:32:01;;;;;;;0.20;0.20;;;;;;;18.77;38.21;100666.75;5126754;28;20143;-30
2022/04/12 04:34:27;;;;;;;0.20;0.20;;;;;;;18.76;38.23;100675.31;5111183;28;20047;-29
2022/04/12 04:36:52;;;;;;;0.20;0.20;;;;;;;18.76;38.01;100676.13;5108139;28;20047;-31
2022/04/12 04:39:18;;;;;;;0.20;0.20;;;;;;;18.76;38.15;100676.13;5120464;28;20036;-30
2022/04/12 04:41:43;;;;;;;0.20;0.20;;;;;;;18.76;38.28;100672.56;5126744;27;20043;-30
2022/04/12 04:44:09;;;;;;;0.20;0.20;;;;;;;18.76;37.98;100678.88;5125042;27;20051;-30
2022/04/12 04:46:35;;;;;;;0.20;0.20;;;;;;;18.75;38.20;100674.50;5123608;28;20044;-30
2022/04/12 04:49:00;;;;;;;0.20;0.20;;;;;;;18.77;38.18;100676.94;5126625;27;20057;-31
2022/04/12 04:51:27;;;;;;;0.20;0.20;;;;;;;18.76;38.25;100678.88;5123403;28;20382;-29
2022/04/12 04:53:58;;;;;;;0.20;0.20;;;;;;;18.77;38.09;100676.94;5104763;28;20071;-30
2022/04/12 04:56:26;;;;;;;0.20;0.20;;;;;;;18.76;38.26;100676.13;5123340;27;20612;-30
2022/04/12 04:58:52;;;;;;;0.20;0.20;;;;;;;18.77;38.27;100674.19;5105028;28;20083;-29
2022/04/12 05:01:20;;;;;;;0.20;0.20;;;;;;;18.75;38.32;100677.25;5121617;27;20074;-29
2022/04/12 05:03:47;;;;;;;0.20;0.20;;;;;;;18.76;38.03;100678.88;5119710;28;20450;-29
2022/04/12 05:06:14;;;;;;;0.20;0.20;;;;;;;18.75;38.36;100679.19;5090612;28;20039;-29
2022/04/12 05:08:40;;;;;;;0.20;0.20;;;;;;;18.77;38.23;100679.72;5129925;28;20066;-30
2022/04/12 05:11:05;;;;;;;0.20;0.20;;;;;;;18.76;38.05;100678.88;5120253;27;20458;-31
2022/04/12 05:13:32;;;;;;;0.20;0.20;;;;;;;18.76;38.15;100670.63;5121050;28;20052;-31
2022/04/12 05:15:57;;;;;;;0.20;0.20;;;;;;;18.77;38.28;100676.94;5103468;28;20062;-29
2022/04/12 05:18:23;;;;;;;0.20;0.20;;;;;;;18.76;38.19;100669.78;5116872;28;20047;-30
2022/04/12 05:20:49;;;;;;;0.20;0.20;;;;;;;18.76;38.24;100670.63;5108532;27;20459;-30
2022/04/12 05:23:16;;;;;;;0.20;0.20;;;;;;;18.76;38.13;100673.38;5122273;28;20389;-29
2022/04/12 05:25:42;;;;;;;0.20;0.20;;;;;;;18.76;38.01;100676.13;5118453;28;20489;-30
2022/04/12 05:28:07;;;;;;;0.20;0.20;;;;;;;18.76;38.19;100676.13;5106336;28;20465;-30
2022/04/12 05:30:33;;;;;;;0.20;0.20;;;;;;;18.76;38.23;100675.31;5124490;28;20043;-30
2022/04/12 05:32:59;;;;;;;0.20;0.20;;;;;;;18.76;38.29;100683.59;5119569;28;20042;-30
2022/04/12 05:35:25;;;;;;;0.20;0.20;;;;;;;18.76;38.26;100683.59;5127476;27;20040;-29
2022/04/12 05:37:52;;;;;;;0.20;0.20;;;;;;;18.77;38.16;100693.50;5123659;28;20115;-29
2022/04/12 05:40:19;;;;;;;0.20;0.20;;;;;;;18.76;38.07;100694.63;5121899;27;20071;-31
2022/04/12 05:42:46;;;;;;;0.20;0.20;;;;;;;18.75;38.08;100704.84;5119554;28;20371;-29
2022/04/12 05:45:12;;;;;;;0.20;0.20;;;;;;;18.77;38.02;100699.03;5099840;28;20159;-29
2022/04/12 05:47:41;;;;;;;0.20;0.20;;;;;;;18.77;38.16;100693.50;5120753;28;20066;-30
2022/04/12 05:50:06;;;;;;;;;;;;;;;18.75;38.14;100693.81;5086466;28;20123;-30
2022/04/12 05:52:32;;;;;;;0.20;0.20;;;;;;;18.75;38.21;100704.84;5122986;28;20010;-29
2022/04/12 05:54:58;;;;;;;0.20;0.20;;;;;;;18.75;38.10;100710.34;5121095;28;20063;-29
2022/04/12 05:57:24;;;;;;;0.20;0.20;;;;;;;18.76;38.29;100700.13;5121264;28;20047;-30
2022/04/12 05:59:49;;;;;;;0.20;0.20;;;;;;;18.76;38.26;100702.91;5119244;28;20047;-30
2022/04/12 06:02:15;;;;;;;0.20;0.20;;;;;;;18.75;38.11;100698.50;5119814;27;20043;-29
2022/04/12 06:04:41;;;;;;;0.20;0.20;;;;;;;18.76;38.32;100702.91;5128649;28;20398;-29
2022/04/12 06:07:06;;;;;;;0.20;0.20;;;;;;;18.75;38.04;100702.06;5116887;28;20141;-30
2022/04/12 06:09:32;;;;;;;0.20;0.20;;;;;;;18.76;38.21;100708.41;5123805;27;20051;-30
2022/04/12 06:11:58;;;;;;;0.20;0.20;;;;;;;18.76;38.11;100709.25;5121415;28;20070;-29
2022/04/12 06:14:23;;;;;;;0.20;0.20;;;;;;;18.77;38.23;100710.06;5126339;27;20039;-29
2022/04/12 06:16:49;;;;;;;0.20;0.20;;;;;;;18.76;38.10;100713.94;5122529;28;20143;-29
2022/04/12 06:19:14;;;;;;;0.20;0.20;;;;;;;18.75;38.08;100710.34;5123523;27;20043;-30
2022/04/12 06:21:40;;;;;;;0.20;0.20;;;;;;;18.76;38.25;100708.41;5125020;28;20518;-31
2022/04/12 06:24:06;;;;;;;0.20;0.20;;;;;;;18.76;38.14;100705.66;5120685;28;20058;-30
2022/04/12 06:26:32;;;;;;;0.20;0.20;;;;;;;18.76;38.13;100695.44;5122468;28;20039;-32
2022/04/12 06:28:57;;;;;;;0.20;0.20;;;;;;;18.78;38.11;100700.66;5120190;27;20409;-29
2022/04/12 06:31:23;;;;;;;0.20;0.20;;;;;;;18.77;38.24;100694.31;5123104;28;20039;-29
2022/04/12 06:33:50;;;;;;;0.20;0.20;;;;;;;18.76;38.20;100689.94;5122190;28;20099;-30
2022/04/12 06:36:16;;;;;;;0.20;0.20;;;;;;;18.77;38.01;100679.72;5117427;28;20127;-30
2022/04/12 06:38:41;;;;;;;0.20;0.20;;;;;;;18.76;38.07;100689.09;5098828;28;20043;-29
2022/04/12 06:41:07;;;;;;;0.20;0.20;;;;;;;18.77;38.09;100685.22;5117796;28;20040;-29
2022/04/12 06:43:33;;;;;;;0.20;0.20;;;;;;;18.77;38.07;100688.00;5127384;27;20052;-29
2022/04/12 06:45:59;;;;;;;0.20;0.20;;;;;;;18.77;38.05;100685.22;5118527;28;20145;-30
2022/04/12 06:48:25;;;;;;;0.20;0.20;;;;;;;18.75;38.25;100677.25;5121243;28;20051;-29
2022/04/12 06:50:52;;;;;;;0.20;0.20;;;;;;;18.76;38.13;100676.13;5117030;27;20043;-30
2022/04/12 06:53:18;;;;;;;0.20;0.20;;;;;;;18.76;38.01;100678.06;5119817;28;20074;-30
2022/04/12 06:55:43;;;;;;;0.20;0.20;;;;;;;18.76;38.02;100686.34;5120523;28;20055;-30
2022/04/12 06:58:09;;;;;;;0.20;0.20;;;;;;;18.76;38.24;100683.59;5097872;28;20068;-30
2022/04/12 07:00:36;;;;;;;0.20;0.20;;;;;;;18.76;38.07;100678.88;5124998;27;20048;-30
2022/04/12 07:03:02;;;;;;;0.20;0.20;;;;;;;18.76;38.20;100683.59;5125630;27;20128;-29
2022/04/12 07:05:28;;;;;;;0.20;0.20;;;;;;;18.75;38.07;100691.03;5101550;28;20043;-30
2022/04/12 07:07:54;;;;;;;0.20;0.20;;;;;;;18.77;38.07;100690.75;5124612;28;20062;-30
2022/04/12 07:10:20;;;;;;;0.20;0.20;;;;;;;18.76;38.14;100684.41;5124183;28;20080;-30
2022/04/12 07:12:46;;;;;;;0.20;0.20;;;;;;;18.76;38.10;100680.81;5126204;28;20095;-30
2022/04/12 07:15:13;;;;;;;0.20;0.20;;;;;;;18.75;38.24;100690.22;5120908;28;20432;-30
2022/04/12 07:17:38;;;;;;;0.20;0.20;;;;;;;18.76;38.03;100673.38;5116809;28;20466;-30
2022/04/12 07:20:04;;;;;;;0.22;0.22;;;;;;;18.76;38.19;100681.66;5121742;27;20058;-30
2022/04/12 07:22:30;;;;;;;0.20;0.20;;;;;;;18.76;38.19;100681.66;5118788;28;20067;-30
2022/04/12 07:24:56;;;;;;;0.20;0.20;;;;;;;18.76;38.14;100678.88;5122451;28;20441;-29
2022/04/12 07:27:21;;;;;;;0.20;0.20;;;;;;;18.76;38.16;100678.88;5119193;28;20047;-29
2022/04/12 07:29:47;;;;;;;0.20;0.20;;;;;;;18.77;38.25;100676.94;5116346;28;20050;-29
2022/04/12 07:32:13;;;;;;;0.20;0.20;;;;;;;18.76;38.16;100687.16;5125098;28;20466;-32
2022/04/12 07:34:38;;;;;;;0.20;0.20;;;;;;;18.75;38.06;100696.56;5117446;28;20413;-29
2022/04/12 07:37:04;;;;;;;0.20;0.20;;;;;;;18.76;38.00;100689.94;5122100;28;20046;-31
2022/04/12 07:39:30;;;;;;;0.20;0.20;;;;;;;18.76;38.37;100680.81;5118950;28;20058;-31
2022/04/12 07:41:55;;;;;;;0.20;0.20;;;;;;;18.76;38.05;100684.41;5127378;27;20035;-30
2022/04/12 07:44:21;;;;;;;0.20;0.20;;;;;;;18.76;38.20;100678.06;5125473;28;20515;-30
2022/04/12 07:46:47;;;;;;;0.20;0.20;;;;;;;18.77;38.24;100668.69;5124781;28;20572;-29
2022/04/12 07:49:13;;;;;;;0.20;0.20;;;;;;;18.76;38.15;100669.78;5120680;27;20054;-30
2022/04/12 07:51:39;;;;;;;0.20;0.20;;;;;;;18.76;38.05;100665.09;5094144;28;20039;-31
2022/04/12 07:54:06;;;;;;;0.20;0.20;;;;;;;18.76;38.23;100667.84;5124498;28;20058;-30
2022/04/12 07:56:33;;;;;;;0.20;0.20;;;;;;;18.76;38.18;100676.13;5101248;28;20063;-29
2022/04/12 07:58:59;;;;;;;0.20;0.20;;;;;;;18.76;37.77;100669.78;5126215;28;20070;-29
2022/04/12 08:01:24;;;;;;;0.30;0.30;;;;;;;18.76;38.14;100665.09;5116220;27;20131;-30
2022/04/12 08:03:50;;;;;;;0.20;0.20;;;;;;;18.75;38.06;100662.63;5124803;28;20095;-29
2022/04/12 08:06:16;;;;;;;0.20;0.20;;;;;;;18.75;38.18;100663.44;5127940;28;20039;-30
2022/04/12 08:08:42;;;;;;;0.20;0.20;;;;;;;18.75;38.17;100657.94;5129238;28;20490;-32
2022/04/12 08:11:07;;;;;;;0.20;0.20;;;;;;;18.76;38.16;100670.63;5128100;28;20050;-29
2022/04/12 08:13:34;;;;;;;0.20;0.20;;;;;;;18.76;37.96;100665.09;5100863;28;20059;-31
2022/04/12 08:15:59;;;;;;;0.20;0.20;;;;;;;18.78;38.08;100667.56;5124096;28;20386;-30
2022/04/12 08:18:25;;;;;;;0.20;0.20;;;;;;;18.76;37.92;100667.84;5122752;28;20043;-30
2022/04/12 08:20:51;;;;;;;0.20;0.20;;;;;;;18.76;38.08;100662.34;5108686;28;20042;-30
2022/04/12 08:23:17;;;;;;;0.30;0.30;;;;;;;18.75;38.11;100660.69;5104335;28;20503;-29
2022/04/12 08:25:43;;;;;;;0.20;0.20;;;;;;;18.76;38.10;100659.56;5121055;28;20489;-30
2022/04/12 08:28:09;;;;;;;0.20;0.20;;;;;;;18.76;38.18;100669.78;5104171;28;20051;-31
2022/04/12 08:30:35;;;;;;;0.20;0.20;;;;;;;18.77;38.04;100665.91;5119676;28;20044;-30
2022/04/12 08:33:02;;;;;;;0.20;0.20;;;;;;;18.76;38.26;100667.03;5120093;28;20048;-30
2022/04/12 08:35:28;;;;;;;0.20;0.20;;;;;;;18.76;37.99;100665.09;5125275;28;20077;-30
2022/04/12 08:37:54;;;;;;;0.20;0.20;;;;;;;18.76;38.19;100667.03;5121474;28;20565;-30
2022/04/12 08:40:20;;;;;;;0.20;0.20;;;;;;;18.76;38.10;100670.63;5122823;28;20050;-30
2022/04/12 08:42:46;;;;;;;0.20;0.20;;;;;;;18.76;38.05;100662.34;5132431;27;20126;-30
2022/04/12 08:45:12;;;;;;;0.20;0.20;;;;;;;18.74;38.16;100661.81;5120631;28;20071;-30
2022/04/12 08:47:39;;;;;;;0.20;0.20;;;;;;;18.75;37.99;100666.22;5120655;28;20471;-29
2022/04/12 08:50:06;;;;;;;0.20;0.20;;;;;;;18.74;38.15;100664.56;5107696;28;20054;-31
2022/04/12 08:52:32;;;;;;;0.20;0.20;;;;;;;18.76;38.10;100670.63;5126517;27;20071;-30
2022/04/12 08:54:58;;;;;;;0.20;0.20;;;;;;;18.76;38.16;100656.81;5121190;28;20063;-29
2022/04/12 08:57:23;;;;;;;0.20;0.20;;;;;;;18.75;38.15;100666.22;5118456;28;20043;-31
2022/04/12 08:59:49;;;;;;;0.28;0.28;;;;;;;18.75;38.07;100666.22;5129670;27;20073;-31
2022/04/12 09:02:14;;;;;;;0.20;0.20;;;;;;;18.74;38.01;100659.06;5126253;28;20048;-30
2022/04/12 09:04:40;;;;;;;0.20;0.20;;;;;;;18.75;38.13;100662.63;5123400;28;20101;-30
2022/04/12 09:07:09;;;;;;;0.20;0.20;;;;;;;18.74;37.91;100656.28;5121845;28;20039;-30
2022/04/12 09:09:34;;;;;;;0.20;0.20;;;;;;;18.75;37.95;100659.88;5125034;28;20086;-29
2022/04/12 09:12:03;;;;;;;0.20;0.20;;;;;;;18.75;38.21;100657.94;5127353;28;20481;-31
2022/04/12 09:14:39;;;;;;;0.30;0.30;;;;;;;18.76;38.04;100653.25;5108645;28;20046;-30
2022/04/12 09:17:06;;;;;;;0.20;0.20;;;;;;;18.76;38.18;100653.25;5126880;28;20133;-30
2022/04/12 09:19:43;;;;;;;0.20;0.20;;;;;;;18.75;38.24;100657.13;5122080;27;20321;-30
2022/04/12 09:24:53;;;;;;;0.20;0.20;;;;;;;18.75;38.07;100633.09;5165036;27;20121;-23
2022/04/12 09:27:21;;;;;;;0.20;0.20;;;;;;;18.75;38.18;100629.53;5124132;27;20152;-23
2022/04/12 09:29:49;;;;;;;0.20;0.20;;;;;;;18.75;37.99;100629.53;5120350;27;20070;-24
2022/04/12 09:32:15;;;;;;;0.20;0.20;;;;;;;18.76;38.19;100634.75;5144549;27;20534;-24
2022/04/12 09:34:43;;;;;;;0.20;0.20;;;;;;;18.75;38.16;100633.09;5148023;27;20126;-24
2022/04/12 09:37:28;;;;;;;0.20;0.20;;;;;;;18.75;38.08;100627.59;5124098;27;20046;-24
2022/04/12 09:40:03;;;;;;;0.20;0.20;;;;;;;18.75;38.25;100638.63;5128360;27;20398;-23
2022/04/12 09:42:49;;;;;;;0.20;0.20;;;;;;;18.76;37.94;100631.16;5126998;27;20042;-24
2022/04/12 09:45:32;;;;;;;0.20;0.20;;;;;;;18.75;37.91;100616.56;5111510;27;20122;-24
2022/04/12 09:48:02;;;;;;;0.20;0.20;;;;;;;18.74;38.09;100614.09;5131255;27;20148;-24
2022/04/12 09:50:49;;;;;;;0.20;0.20;;;;;;;18.75;38.03;100618.50;5094865;27;20485;-24
2022/04/12 09:53:15;;;;;;;0.20;0.20;;;;;;;18.74;38.17;100612.16;5127568;27;20070;-24
2022/04/12 09:55:45;;;;;;;0.20;0.20;;;;;;;18.75;38.26;100607.47;5129979;27;20044;-24
2022/04/12 09:58:14;;;;;;;0.20;0.20;;;;;;;18.75;38.12;100605.53;5107316;27;20085;-24
2022/04/12 10:00:41;;;;;;;0.20;0.20;;;;;;;18.75;38.07;100604.69;5107263;27;20084;-24
2022/04/12 10:03:11;;;;;;;0.20;0.20;;;;;;;18.75;38.03;100605.53;5116471;27;20044;-24
2022/04/12 10:05:37;;;;;;;0.20;0.20;;;;;;;18.76;38.19;100595.31;5109479;27;20138;-24
2022/04/12 10:08:04;;;;;;;0.20;0.20;;;;;;;18.75;38.12;100608.28;5103745;27;20047;-24
2022/04/12 10:10:30;;;;;;;0.20;0.20;;;;;;;18.75;38.17;100611.03;5128115;27;20086;-24
2022/04/12 10:12:57;;;;;;;0.30;0.30;;;;;;;18.75;38.10;100613.78;5113531;28;20048;-24
2022/04/12 10:15:26;;;;;;;0.20;0.20;;;;;;;18.76;38.16;100600.81;5125247;27;20043;-24
2022/04/12 10:17:52;;;;;;;;;;;;;;;18.75;38.10;100600.00;5106977;27;20078;-25
2022/04/12 10:20:18;;;;;;;0.20;0.20;;;;;;;18.74;38.03;100603.06;5117495;27;19920;-25
2022/04/12 10:22:45;;;;;;;0.20;0.20;;;;;;;18.75;38.07;100596.44;5121615;27;20211;-25
2022/04/12 10:25:12;;;;;;;0.20;0.20;;;;;;;18.75;38.00;100591.72;5121302;27;20070;-24
2022/04/12 10:27:38;;;;;;;0.30;0.30;;;;;;;18.76;38.04;100592.56;5137998;27;20138;-25
2022/04/12 10:33:18;;;;;;;0.20;0.20;;;;;;;18.76;37.92;100595.31;5174188;27;20212;-28
2022/04/12 10:38:26;;;;;;;0.20;0.20;;;;;;;18.75;38.04;100594.50;5161337;27;20599;-24
2022/04/12 10:40:54;;;;;;;0.20;0.20;;;;;;;18.75;38.07;100588.16;5140567;27;20374;-24
2022/04/12 10:43:30;;;;;;;0.20;0.20;;;;;;;18.75;38.09;100583.44;5144836;27;20078;-24
2022/04/12 10:45:58;;;;;;;0.20;0.20;;;;;;;18.76;38.15;100581.50;5143789;27;20081;-25
2022/04/12 10:48:25;;;;;;;0.20;0.20;;;;;;;18.75;38.04;100572.41;5165196;27;20125;-24
2022/04/12 10:50:53;;;;;;;0.20;0.20;;;;;;;18.76;38.24;100579.56;5156936;27;20078;-24
2022/04/12 10:56:16;;;;;;;0.20;0.20;;;;;;;18.76;38.14;100582.34;5166328;27;20153;-27
2022/04/12 10:58:43;;;;;;;0.20;0.20;;;;;;;18.76;38.25;100579.56;5140357;27;20074;-28
2022/04/12 11:01:10;;;;;;;0.20;0.20;;;;;;;18.76;38.02;100570.47;5132410;27;20476;-27
2022/04/12 11:06:25;;;;;;;0.20;0.20;;;;;;;18.76;37.86;100567.72;5169812;27;20197;-29
2022/04/12 11:08:52;;;;;;;0.20;0.20;;;;;;;18.76;37.93;100560.25;5147236;27;20530;-28
2022/04/12 11:11:21;;;;;;;0.20;0.20;;;;;;;18.77;38.05;100572.13;5135657;27;20081;-27
2022/04/12 11:13:49;;;;;;;0.20;0.20;;;;;;;18.75;38.06;100569.66;5146860;27;20457;-27
2022/04/12 11:16:18;;;;;;;0.20;0.20;;;;;;;18.75;38.15;100558.63;5134390;27;20057;-27
2022/04/12 11:18:59;;;;;;;0.20;0.20;;;;;;;18.76;38.16;100553.94;5129537;27;20041;-28
2022/04/12 11:21:27;;;;;;;0.20;0.20;;;;;;;18.76;38.06;100562.22;5147172;27;20502;-27
2022/04/12 11:24:01;;;;;;;0.20;0.20;;;;;;;18.76;37.89;100557.50;5150439;27;20069;-30
2022/04/12 11:26:54;;;;;;;0.20;0.20;;;;;;;18.76;37.92;100554.75;5148397;27;20043;-27
2022/04/12 11:29:22;;;;;;;0.20;0.20;;;;;;;18.75;38.02;100553.09;5119325;27;20850;-27
2022/04/12 11:31:51;;;;;;;0.20;0.20;;;;;;;18.75;38.24;100550.34;5112347;27;20757;-29
2022/04/12 11:34:18;;;;;;;0.20;0.20;;;;;;;18.76;38.24;100559.44;5128273;27;20043;-27
2022/04/12 11:36:46;;;;;;;0.20;0.20;;;;;;;18.76;38.25;100562.22;5140935;27;20501;-28
2022/04/12 11:39:28;;;;;;;0.20;0.20;;;;;;;18.77;38.18;100552.81;5136234;27;20047;-28
2022/04/12 11:41:59;;;;;;;0.30;0.30;;;;;;;18.77;38.04;100550.06;5116229;27;20081;-28